Aviation Digital Data Service (ADDS)

Output produced by METARs form (1429 UTC 10 July 2020)
found at http://www.aviationweather.gov/metar/data/
 
KBHM 101400Z 30004KT 10SM BKN013 27/23 A3001 RMK AO2 T02720233
KBHM 101353Z VRB04KT 10SM SCT013 27/23 A3001 RMK AO2 SLP154 T02670228
KBHM 101405Z 1014/1112 26004KT P6SM FEW009 SCT045 
     TEMPO 1014/1016 BKN015 
     FM101600 30011KT P6SM SCT045 
     FM110400 32005KT P6SM FEW250